createdAt,value
2023-03-16T00:00:25.918Z,15.70
2023-03-16T00:03:21.807Z,14.60
2023-03-16T00:05:54.284Z,17.20
2023-03-16T00:08:23.823Z,18.60
2023-03-16T00:10:54.426Z,14.30
2023-03-16T00:13:25.365Z,13.00
2023-03-16T00:15:57.669Z,16.20
2023-03-16T00:18:30.346Z,17.30
2023-03-16T00:21:05.491Z,16.40
2023-03-16T00:23:36.290Z,21.00
2023-03-16T00:26:10.498Z,21.20
2023-03-16T00:28:39.942Z,24.30
2023-03-16T00:31:15.800Z,22.00
2023-03-16T00:33:44.377Z,21.00
2023-03-16T00:36:13.550Z,19.00
2023-03-16T00:38:47.328Z,15.50
2023-03-16T00:41:16.759Z,19.20
2023-03-16T00:43:45.914Z,15.50
2023-03-16T00:46:18.293Z,15.60
2023-03-16T00:48:48.060Z,20.70
2023-03-16T00:51:19.950Z,18.20
2023-03-16T00:53:49.300Z,18.60
2023-03-16T00:56:18.327Z,23.60
2023-03-16T00:58:48.042Z,22.90
2023-03-16T01:01:19.904Z,28.50
2023-03-16T01:03:50.142Z,20.70
2023-03-16T01:06:20.915Z,20.70
2023-03-16T01:08:50.127Z,20.00
2023-03-16T01:11:23.195Z,17.20
2023-03-16T01:13:54.687Z,17.80
2023-03-16T01:16:23.905Z,14.80
2023-03-16T01:18:53.389Z,12.10
2023-03-16T01:21:22.439Z,11.40
2023-03-16T01:23:54.261Z,11.10
2023-03-16T01:26:25.602Z,8.10
2023-03-16T01:28:55.493Z,11.50
2023-03-16T01:31:24.788Z,10.50
2023-03-16T01:33:53.827Z,11.00
2023-03-16T01:36:26.374Z,8.00
2023-03-16T01:39:00.580Z,7.70
2023-03-16T01:41:33.475Z,11.10
2023-03-16T01:44:02.688Z,9.40
2023-03-16T01:46:32.984Z,12.20
2023-03-16T01:49:12.745Z,14.20
2023-03-16T01:51:52.593Z,14.30
2023-03-16T01:54:42.987Z,13.90
2023-03-16T01:57:32.878Z,14.40
2023-03-16T02:00:22.034Z,13.50
2023-03-16T02:03:19.957Z,11.80
2023-03-16T02:06:06.822Z,12.30
2023-03-16T02:08:39.469Z,9.70
2023-03-16T02:11:10.023Z,10.90
2023-03-16T02:13:47.052Z,11.70
2023-03-16T02:16:20.355Z,12.30
2023-03-16T02:18:52.103Z,10.40
2023-03-16T02:22:10.728Z,10.50
2023-03-16T02:24:39.523Z,7.30
2023-03-16T02:27:20.191Z,9.80
2023-03-16T02:30:09.360Z,10.80
2023-03-16T02:32:47.327Z,11.70
2023-03-16T02:35:16.248Z,12.70
2023-03-16T02:37:45.370Z,9.20
2023-03-16T02:40:35.948Z,10.70
2023-03-16T02:43:34.489Z,10.20
2023-03-16T02:46:09.068Z,8.40
2023-03-16T02:49:13.480Z,7.20
2023-03-16T02:51:45.756Z,10.50
2023-03-16T02:54:14.950Z,8.50
2023-03-16T02:56:44.557Z,7.70
2023-03-16T02:59:14.092Z,6.60
2023-03-16T03:01:43.815Z,5.60
2023-03-16T03:04:13.656Z,6.50
2023-03-16T03:06:42.699Z,6.60
2023-03-16T03:09:12.006Z,8.00
2023-03-16T03:11:41.885Z,5.30
2023-03-16T03:14:11.203Z,10.90
2023-03-16T03:16:40.630Z,7.30
2023-03-16T03:19:09.397Z,7.40
2023-03-16T03:21:38.808Z,10.90
2023-03-16T03:24:10.276Z,9.90
2023-03-16T03:26:38.839Z,10.80
2023-03-16T03:29:09.366Z,11.30
2023-03-16T03:31:38.160Z,8.00
2023-03-16T03:34:07.179Z,8.80
2023-03-16T03:36:37.166Z,7.90
2023-03-16T03:39:07.904Z,7.00
2023-03-16T03:41:37.103Z,8.60
2023-03-16T03:44:05.995Z,9.40
2023-03-16T03:46:35.854Z,10.90
2023-03-16T03:49:05.686Z,9.70
2023-03-16T03:51:36.558Z,9.10
2023-03-16T03:54:11.698Z,9.60
2023-03-16T03:56:48.370Z,10.80
2023-03-16T03:59:18.289Z,7.20
2023-03-16T04:01:59.474Z,9.50
2023-03-16T04:04:32.968Z,10.20
2023-03-16T04:07:01.654Z,6.80
2023-03-16T04:09:34.158Z,9.90
2023-03-16T04:12:06.040Z,9.60
2023-03-16T04:14:35.904Z,8.40
2023-03-16T04:17:07.760Z,8.30
2023-03-16T04:19:37.679Z,11.50
2023-03-16T04:22:08.108Z,7.50
2023-03-16T04:24:37.831Z,8.80
2023-03-16T04:27:07.646Z,9.30
2023-03-16T04:29:36.693Z,10.10
2023-03-16T04:32:07.993Z,8.00
2023-03-16T04:34:37.097Z,11.00
2023-03-16T04:37:06.887Z,11.00
2023-03-16T04:39:36.598Z,10.50
2023-03-16T04:42:06.506Z,11.60
2023-03-16T04:44:35.266Z,8.60
2023-03-16T04:47:04.134Z,7.60
2023-03-16T04:49:38.164Z,13.60
2023-03-16T04:52:08.121Z,15.60
2023-03-16T04:54:37.217Z,12.40
2023-03-16T04:57:06.119Z,24.70
2023-03-16T04:59:42.071Z,45.00
2023-03-16T05:02:25.811Z,37.80
2023-03-16T05:04:56.206Z,28.90
2023-03-16T05:07:25.386Z,20.40
2023-03-16T05:09:56.143Z,19.20
2023-03-16T05:12:25.366Z,14.90
2023-03-16T05:14:57.538Z,16.60
2023-03-16T05:17:33.797Z,13.20
2023-03-16T05:20:15.931Z,14.20
2023-03-16T05:22:49.221Z,13.70
2023-03-16T05:25:30.998Z,16.70
2023-03-16T05:28:00.909Z,22.10
2023-03-16T05:30:37.272Z,22.10
2023-03-16T05:33:08.128Z,27.10
2023-03-16T05:35:38.492Z,24.50
2023-03-16T05:38:10.607Z,24.10
2023-03-16T05:40:42.619Z,25.50
2023-03-16T05:43:31.332Z,34.10
2023-03-16T05:46:00.460Z,30.00
2023-03-16T05:48:29.560Z,28.30
2023-03-16T05:50:59.232Z,30.70
2023-03-16T05:53:30.292Z,27.10
2023-03-16T05:56:07.265Z,20.70
2023-03-16T05:58:37.376Z,16.80
2023-03-16T06:01:09.748Z,16.70
2023-03-16T06:03:38.654Z,19.00
2023-03-16T06:06:09.577Z,19.60
2023-03-16T06:08:49.854Z,27.00
2023-03-16T06:11:19.138Z,25.50
2023-03-16T06:13:48.746Z,21.10
2023-03-16T06:16:18.062Z,17.90
2023-03-16T06:18:46.940Z,25.90
2023-03-16T06:21:15.830Z,21.70
2023-03-16T06:23:44.894Z,25.30
2023-03-16T06:26:13.637Z,28.10
2023-03-16T06:28:42.939Z,28.10
2023-03-16T06:31:11.668Z,18.20
2023-03-16T06:33:41.826Z,14.50
2023-03-16T06:36:10.893Z,24.80
2023-03-16T06:38:43.355Z,43.00
2023-03-16T06:41:38.336Z,53.20
2023-03-16T06:44:07.392Z,85.80
2023-03-16T06:46:38.865Z,36.70
2023-03-16T06:49:09.207Z,31.90
2023-03-16T06:51:37.774Z,30.20
2023-03-16T06:54:06.569Z,20.90
2023-03-16T06:56:38.614Z,20.20
2023-03-16T06:59:08.849Z,16.20
2023-03-16T07:01:38.137Z,15.50
2023-03-16T07:04:06.903Z,10.10
2023-03-16T07:06:36.124Z,12.80
2023-03-16T07:09:05.751Z,13.60
2023-03-16T07:11:34.740Z,12.30
2023-03-16T07:14:03.428Z,14.60
2023-03-16T07:16:33.379Z,14.60
2023-03-16T07:19:04.162Z,15.40
2023-03-16T07:21:39.468Z,12.40
2023-03-16T07:24:11.878Z,16.80
2023-03-16T07:26:43.467Z,11.60
2023-03-16T07:29:14.126Z,11.20
2023-03-16T07:31:43.267Z,11.70
2023-03-16T07:34:16.670Z,13.30
2023-03-16T07:36:49.765Z,15.60
2023-03-16T07:39:18.824Z,12.80
2023-03-16T07:41:47.534Z,12.70
2023-03-16T07:44:18.081Z,10.40
2023-03-16T07:46:49.929Z,11.40
2023-03-16T07:49:19.585Z,13.50
2023-03-16T07:51:50.079Z,12.70
2023-03-16T07:54:19.978Z,12.40
2023-03-16T07:56:49.865Z,15.40
2023-03-16T07:59:42.135Z,18.70
2023-03-16T08:02:19.456Z,16.10
2023-03-16T08:04:49.234Z,10.70
2023-03-16T08:07:18.228Z,12.10
2023-03-16T08:09:56.238Z,11.20
2023-03-16T08:12:29.952Z,9.40
2023-03-16T08:14:58.940Z,12.70
2023-03-16T08:17:32.590Z,10.40
2023-03-16T08:20:01.940Z,10.30
2023-03-16T08:22:31.349Z,9.70
2023-03-16T08:25:00.139Z,9.50
2023-03-16T08:27:29.643Z,9.60
2023-03-16T08:30:06.051Z,11.60
2023-03-16T08:32:35.548Z,8.90
2023-03-16T08:35:06.025Z,10.20
2023-03-16T08:37:35.455Z,9.00
2023-03-16T08:40:10.157Z,12.10
2023-03-16T08:42:40.012Z,9.50
2023-03-16T08:45:13.811Z,10.40
2023-03-16T08:47:44.449Z,8.30
2023-03-16T08:50:14.029Z,9.30
2023-03-16T08:52:43.143Z,8.90
2023-03-16T08:55:13.563Z,9.60
2023-03-16T08:57:45.358Z,8.20
2023-03-16T09:00:15.807Z,8.40
2023-03-16T09:02:45.904Z,10.70
2023-03-16T09:05:16.203Z,8.50
2023-03-16T09:07:44.933Z,9.30
2023-03-16T09:10:16.521Z,8.50
2023-03-16T09:12:46.039Z,9.70
2023-03-16T09:15:14.940Z,8.30
2023-03-16T09:17:45.376Z,8.30
2023-03-16T09:20:22.857Z,8.60
2023-03-16T09:22:56.436Z,8.50
2023-03-16T09:25:26.355Z,10.50
2023-03-16T09:27:55.978Z,9.00
2023-03-16T09:30:24.773Z,8.90
2023-03-16T09:32:53.817Z,11.20
2023-03-16T09:35:22.657Z,10.60
2023-03-16T09:38:05.695Z,11.70
2023-03-16T09:40:37.954Z,9.50
2023-03-16T09:43:29.061Z,10.10
2023-03-16T09:46:10.091Z,10.10
2023-03-16T09:48:41.312Z,7.80
2023-03-16T09:51:26.669Z,8.70
2023-03-16T09:54:02.480Z,8.70
2023-03-16T09:56:42.569Z,7.20
2023-03-16T09:59:17.694Z,14.20
2023-03-16T10:02:45.098Z,8.70
2023-03-16T10:05:17.248Z,7.00
2023-03-16T10:08:19.512Z,14.00
2023-03-16T10:11:04.215Z,8.90
2023-03-16T10:13:53.969Z,7.00
2023-03-16T10:16:34.977Z,7.60
2023-03-16T10:19:38.817Z,8.70
2023-03-16T10:22:20.057Z,9.20
2023-03-16T10:24:54.648Z,7.70
2023-03-16T10:27:32.943Z,7.50
2023-03-16T10:30:04.008Z,10.20
2023-03-16T10:32:36.892Z,8.60
2023-03-16T10:35:34.558Z,9.10
2023-03-16T10:38:03.347Z,15.80
2023-03-16T10:40:39.124Z,9.00
2023-03-16T10:43:13.904Z,6.90
2023-03-16T10:45:43.849Z,9.60
2023-03-16T10:48:21.453Z,9.60
2023-03-16T10:50:57.829Z,6.70
2023-03-16T10:53:30.324Z,7.10
2023-03-16T10:56:15.262Z,8.10
2023-03-16T10:58:44.350Z,8.30
2023-03-16T11:01:27.323Z,6.50
2023-03-16T11:04:00.314Z,9.90
2023-03-16T11:06:33.179Z,7.40
2023-03-16T11:09:19.824Z,9.00
2023-03-16T11:11:50.317Z,11.10
2023-03-16T11:14:26.119Z,7.20
2023-03-16T11:17:18.276Z,7.30
2023-03-16T11:20:00.648Z,5.70
2023-03-16T11:22:30.398Z,9.40
2023-03-16T11:25:17.627Z,6.40
2023-03-16T11:28:13.756Z,7.30
2023-03-16T11:31:01.710Z,10.20
2023-03-16T11:33:32.305Z,7.70
2023-03-16T11:36:28.158Z,10.70
2023-03-16T11:39:24.485Z,6.60
2023-03-16T11:42:16.416Z,6.20
2023-03-16T11:45:19.820Z,5.30
2023-03-16T11:48:00.277Z,7.40
2023-03-16T11:50:39.926Z,7.80
2023-03-16T11:53:39.226Z,6.70
2023-03-16T11:56:36.490Z,4.90
2023-03-16T11:59:29.944Z,6.00
2023-03-16T12:02:55.599Z,5.70
2023-03-16T12:05:36.744Z,4.30
2023-03-16T12:09:04.665Z,5.90
2023-03-16T12:11:44.928Z,4.50
2023-03-16T12:14:28.452Z,6.30
2023-03-16T12:17:07.327Z,6.80
2023-03-16T12:19:59.164Z,3.90
2023-03-16T12:22:38.878Z,5.50
2023-03-16T12:25:36.886Z,6.40
2023-03-16T12:28:19.088Z,7.70
2023-03-16T12:31:00.076Z,5.50
2023-03-16T12:33:34.855Z,4.90
2023-03-16T12:36:53.765Z,5.10
2023-03-16T12:39:50.401Z,4.70
2023-03-16T12:42:42.738Z,6.40
2023-03-16T12:46:12.780Z,5.60
2023-03-16T12:48:47.960Z,6.30
2023-03-16T12:51:17.620Z,5.30
2023-03-16T12:53:53.572Z,4.90
2023-03-16T12:56:47.077Z,5.50
2023-03-16T12:59:24.759Z,6.10
2023-03-16T13:02:04.155Z,5.90
2023-03-16T13:04:42.081Z,5.60
2023-03-16T13:07:27.152Z,5.10
2023-03-16T13:10:17.607Z,5.10
2023-03-16T13:12:48.128Z,6.30
2023-03-16T13:15:23.832Z,5.10
2023-03-16T13:18:10.848Z,6.60
2023-03-16T13:20:57.353Z,6.20
2023-03-16T13:24:00.466Z,7.70
2023-03-16T13:27:06.824Z,5.10
2023-03-16T13:29:37.733Z,7.00
2023-03-16T13:32:17.796Z,7.00
2023-03-16T13:34:53.630Z,10.10
2023-03-16T13:37:32.612Z,9.00
2023-03-16T13:40:04.606Z,5.40
2023-03-16T13:42:34.307Z,3.60
2023-03-16T13:45:23.572Z,5.70
2023-03-16T13:47:52.534Z,5.20
2023-03-16T13:50:21.629Z,8.30
2023-03-16T13:53:28.819Z,7.10
2023-03-16T13:56:02.275Z,4.60
2023-03-16T13:58:36.101Z,5.60
2023-03-16T14:01:18.282Z,5.00
2023-03-16T14:03:48.671Z,5.10
2023-03-16T14:06:28.894Z,5.20
2023-03-16T14:09:04.786Z,3.80
2023-03-16T14:11:33.452Z,4.80
2023-03-16T14:14:17.686Z,4.60
2023-03-16T14:16:46.705Z,7.00
2023-03-16T14:19:32.511Z,4.70
2023-03-16T14:22:07.378Z,9.60
2023-03-16T14:24:40.719Z,5.50
2023-03-16T14:27:33.180Z,5.70
2023-03-16T14:30:19.779Z,4.50
2023-03-16T14:33:09.204Z,4.40
2023-03-16T14:35:44.329Z,6.10
2023-03-16T14:38:40.951Z,7.10
2023-03-16T14:41:12.485Z,4.50
2023-03-16T14:44:06.262Z,8.00
2023-03-16T14:46:41.299Z,6.40
2023-03-16T14:49:23.079Z,6.70
2023-03-16T14:51:58.157Z,5.90
2023-03-16T14:54:28.347Z,6.30
2023-03-16T14:57:05.785Z,5.10
2023-03-16T14:59:34.548Z,5.20
2023-03-16T15:02:07.366Z,3.20
2023-03-16T15:04:38.289Z,5.00
2023-03-16T15:07:24.179Z,5.70
2023-03-16T15:09:55.428Z,6.60
2023-03-16T15:12:26.421Z,5.60
2023-03-16T15:15:13.846Z,5.30
2023-03-16T15:17:44.310Z,6.70
2023-03-16T15:20:21.421Z,3.90
2023-03-16T15:22:53.145Z,7.20
2023-03-16T15:25:41.614Z,5.20
2023-03-16T15:28:22.454Z,9.50
2023-03-16T15:31:03.922Z,7.50
2023-03-16T15:33:33.521Z,12.50
2023-03-16T15:36:12.317Z,9.60
2023-03-16T15:38:47.404Z,8.70
2023-03-16T15:41:16.390Z,7.60
2023-03-16T15:43:46.152Z,5.00
2023-03-16T15:46:15.294Z,8.50
2023-03-16T15:48:44.603Z,9.10
2023-03-16T15:51:30.912Z,8.80
2023-03-16T15:54:06.231Z,9.60
2023-03-16T15:56:52.706Z,9.00
2023-03-16T15:59:24.914Z,6.70
2023-03-16T16:01:53.904Z,5.20
2023-03-16T16:04:24.488Z,7.90
2023-03-16T16:06:55.606Z,11.80
2023-03-16T16:09:24.709Z,10.10
2023-03-16T16:11:53.260Z,9.60
2023-03-16T16:14:26.083Z,8.70
2023-03-16T16:16:54.704Z,9.30
2023-03-16T16:19:23.494Z,6.00
2023-03-16T16:21:53.027Z,12.50
2023-03-16T16:24:22.835Z,215.00
2023-03-16T16:26:55.301Z,163.40
2023-03-16T16:29:32.196Z,177.10
2023-03-16T16:32:02.242Z,234.50
2023-03-16T16:34:31.439Z,118.20
2023-03-16T16:37:00.108Z,330.50
2023-03-16T16:39:28.989Z,462.80
2023-03-16T16:41:58.198Z,294.90
2023-03-16T16:44:33.571Z,394.10
2023-03-16T16:47:13.686Z,226.80
2023-03-16T16:49:42.883Z,405.00
2023-03-16T16:52:17.665Z,397.30
2023-03-16T16:54:46.306Z,475.60
2023-03-16T16:57:20.550Z,126.60
2023-03-16T16:59:49.832Z,111.20
2023-03-16T17:02:30.180Z,169.00
2023-03-16T17:04:59.400Z,89.60
2023-03-16T17:07:28.067Z,93.70
2023-03-16T17:09:56.752Z,103.30
2023-03-16T17:12:25.334Z,34.40
2023-03-16T17:14:54.432Z,15.50
2023-03-16T17:17:23.020Z,12.20
2023-03-16T17:19:51.852Z,14.50
2023-03-16T17:22:28.607Z,13.50
2023-03-16T17:24:57.386Z,15.20
2023-03-16T17:27:31.555Z,15.20
2023-03-16T17:30:00.254Z,18.80
2023-03-16T17:32:29.606Z,27.70
2023-03-16T17:34:58.264Z,25.70
2023-03-16T17:37:26.967Z,25.70
2023-03-16T17:39:57.686Z,31.20
2023-03-16T17:42:26.812Z,32.50
2023-03-16T17:44:56.361Z,32.70
2023-03-16T17:47:28.256Z,52.70
2023-03-16T17:49:57.377Z,52.80
2023-03-16T17:52:29.522Z,56.70
2023-03-16T17:54:58.110Z,52.00
2023-03-16T17:57:33.455Z,42.60
2023-03-16T18:00:05.570Z,41.00
2023-03-16T18:02:56.641Z,51.60
2023-03-16T18:05:36.515Z,48.80
2023-03-16T18:08:17.831Z,57.60
2023-03-16T18:10:50.134Z,60.70
2023-03-16T18:13:27.860Z,62.10
2023-03-16T18:15:57.611Z,68.10
2023-03-16T18:18:31.823Z,67.80
2023-03-16T18:21:00.849Z,57.40
2023-03-16T18:23:33.887Z,75.50
2023-03-16T18:26:07.128Z,69.90
2023-03-16T18:28:35.924Z,83.60
2023-03-16T18:31:05.923Z,76.60
2023-03-16T18:33:39.445Z,74.50
2023-03-16T18:36:19.019Z,74.50
2023-03-16T18:38:50.752Z,76.80
2023-03-16T18:41:27.111Z,74.00
2023-03-16T18:43:59.997Z,84.00
2023-03-16T18:46:36.420Z,67.60
2023-03-16T18:49:19.384Z,72.30
2023-03-16T18:51:52.431Z,74.00
2023-03-16T18:54:28.953Z,72.80
2023-03-16T18:57:04.377Z,69.70
2023-03-16T18:59:33.179Z,72.50
2023-03-16T19:02:02.306Z,65.40
2023-03-16T19:04:33.126Z,59.50
2023-03-16T19:07:02.111Z,69.00
2023-03-16T19:09:32.808Z,81.20
2023-03-16T19:12:03.879Z,86.00
2023-03-16T19:14:35.549Z,143.00
2023-03-16T19:17:05.141Z,75.30
2023-03-16T19:19:33.830Z,69.90
2023-03-16T19:22:16.318Z,38.00
2023-03-16T19:24:54.205Z,46.60
2023-03-16T19:27:26.919Z,45.20
2023-03-16T19:29:55.840Z,45.80
2023-03-16T19:32:24.636Z,55.80
2023-03-16T19:34:53.509Z,56.30
2023-03-16T19:37:24.158Z,60.20
2023-03-16T19:39:52.921Z,81.50
2023-03-16T19:42:29.982Z,56.20
2023-03-16T19:44:58.588Z,38.70
2023-03-16T19:47:33.230Z,27.20
2023-03-16T19:50:02.212Z,30.70
2023-03-16T19:52:33.051Z,35.10
2023-03-16T19:55:01.779Z,39.10
2023-03-16T19:57:31.870Z,40.60
2023-03-16T20:00:00.752Z,80.40
2023-03-16T20:02:40.660Z,91.70
2023-03-16T20:05:24.992Z,65.80
2023-03-16T20:07:57.538Z,69.00
2023-03-16T20:10:30.357Z,67.50
2023-03-16T20:13:01.792Z,66.10
2023-03-16T20:15:33.752Z,63.10
2023-03-16T20:18:03.242Z,61.20
2023-03-16T20:20:38.129Z,58.60
2023-03-16T20:23:30.477Z,56.70
2023-03-16T20:26:02.694Z,56.60
2023-03-16T20:28:36.667Z,56.40
2023-03-16T20:31:18.425Z,45.30
2023-03-16T20:33:48.645Z,41.50
2023-03-16T20:36:17.390Z,34.10
2023-03-16T20:38:46.999Z,29.80
2023-03-16T20:41:29.815Z,19.70
2023-03-16T20:44:01.419Z,24.50
2023-03-16T20:46:33.136Z,20.10
2023-03-16T20:49:02.329Z,20.80
2023-03-16T20:51:31.625Z,23.30
2023-03-16T20:54:00.211Z,18.40
2023-03-16T20:56:28.795Z,17.90
2023-03-16T20:58:57.482Z,13.40
2023-03-16T21:01:27.275Z,18.40
2023-03-16T21:03:57.056Z,16.00
2023-03-16T21:06:33.942Z,14.30
2023-03-16T21:09:03.712Z,12.20
2023-03-16T21:11:38.159Z,14.30
2023-03-16T21:14:13.630Z,11.10
2023-03-16T21:16:42.148Z,73.80
2023-03-16T21:19:17.208Z,65.10
2023-03-16T21:21:46.700Z,157.00
2023-03-16T21:24:15.381Z,99.90
2023-03-16T21:26:47.144Z,52.90
2023-03-16T21:29:22.134Z,26.70
2023-03-16T21:31:52.019Z,19.60
2023-03-16T21:34:33.272Z,56.00
2023-03-16T21:37:01.917Z,35.40
2023-03-16T21:39:30.644Z,15.60
2023-03-16T21:41:59.336Z,11.40
2023-03-16T21:44:28.229Z,9.20
2023-03-16T21:46:57.125Z,11.00
2023-03-16T21:49:26.071Z,20.40
2023-03-16T21:51:54.799Z,24.30
2023-03-16T21:54:24.470Z,55.70
2023-03-16T21:56:52.899Z,71.80
2023-03-16T21:59:23.837Z,281.80
2023-03-16T22:02:01.661Z,252.40
2023-03-16T22:04:31.029Z,133.80
2023-03-16T22:06:59.819Z,182.60
2023-03-16T22:09:30.575Z,506.10
2023-03-16T22:11:59.547Z,783.80
2023-03-16T22:14:28.350Z,620.20
2023-03-16T22:16:57.631Z,395.70
2023-03-16T22:19:27.617Z,191.10
2023-03-16T22:21:57.182Z,482.20
2023-03-16T22:24:30.178Z,503.00
2023-03-16T22:26:59.887Z,414.20
2023-03-16T22:29:31.885Z,566.60
2023-03-16T22:32:18.263Z,271.10
2023-03-16T22:34:56.639Z,142.00
2023-03-16T22:37:28.636Z,74.30
2023-03-16T22:39:58.795Z,103.20
2023-03-16T22:42:39.809Z,260.50
2023-03-16T22:45:28.200Z,238.70
2023-03-16T22:47:59.769Z,219.90
2023-03-16T22:50:35.453Z,152.40
2023-03-16T22:53:08.462Z,121.10
2023-03-16T22:55:40.130Z,176.70
2023-03-16T22:58:39.406Z,117.90
2023-03-16T23:01:18.773Z,55.30
2023-03-16T23:03:50.592Z,30.80
2023-03-16T23:06:24.114Z,21.30
2023-03-16T23:08:54.860Z,32.10
2023-03-16T23:11:31.632Z,37.10
2023-03-16T23:14:01.226Z,35.20
2023-03-16T23:16:36.666Z,58.90
2023-03-16T23:19:23.898Z,64.10
2023-03-16T23:21:55.973Z,44.80
2023-03-16T23:24:24.655Z,32.20
2023-03-16T23:26:54.727Z,27.30
2023-03-16T23:29:24.480Z,20.30
2023-03-16T23:31:54.152Z,22.30
2023-03-16T23:34:25.709Z,16.60
2023-03-16T23:36:54.339Z,14.00
2023-03-16T23:39:23.456Z,19.70
2023-03-16T23:41:53.316Z,21.40
2023-03-16T23:44:27.632Z,27.50
2023-03-16T23:46:57.107Z,32.00
2023-03-16T23:49:33.148Z,22.80
2023-03-16T23:52:02.422Z,28.80
2023-03-16T23:54:32.923Z,33.00
2023-03-16T23:57:01.748Z,20.30
2023-03-16T23:59:30.322Z,25.40
